Time;durP1;ratioP1;P1;durP2;ratioP2;P2;SDS_P1;SDS_P2;PMS_P1;PMS_P2;Temp;Humidity;BMP_temperature;BMP_pressure;BME280_temperature;BME280_humidity;BME280_pressure;Samples;Min_cycle;Max_cycle;Signal;HPM_P1;HPM_P2
2023/05/11 00:00:44;;;;;;;31.60;25.07;;;;;;;12.85;100.00;101422.59;5030510;28;20815;-40
2023/05/11 00:03:12;;;;;;;36.50;25.97;;;;;;;12.80;100.00;101417.00;5018013;28;20921;-41
2023/05/11 00:05:41;;;;;;;27.63;23.67;;;;;;;12.77;100.00;101418.22;5030217;28;20848;-44
2023/05/11 00:08:08;;;;;;;36.60;27.30;;;;;;;12.72;100.00;101423.34;5029975;28;20451;-43
2023/05/11 00:10:36;;;;;;;35.47;27.00;;;;;;;12.75;100.00;101425.63;5029354;28;20432;-39
2023/05/11 00:13:04;;;;;;;37.43;26.30;;;;;;;12.74;100.00;101430.16;5029290;28;20432;-44
2023/05/11 00:15:33;;;;;;;36.43;27.60;;;;;;;12.72;100.00;101421.47;5030243;28;20428;-40
2023/05/11 00:18:01;;;;;;;44.47;28.27;;;;;;;12.69;100.00;101424.53;5029710;28;20468;-40
2023/05/11 00:20:28;;;;;;;32.20;24.43;;;;;;;12.72;100.00;101434.84;5029871;28;20468;-44
2023/05/11 00:22:56;;;;;;;32.60;25.00;;;;;;;12.69;100.00;101427.22;5029202;28;20423;-40
2023/05/11 00:25:24;;;;;;;35.13;24.37;;;;;;;12.66;100.00;101426.78;5029796;28;20439;-42
2023/05/11 00:27:51;;;;;;;30.53;23.40;;;;;;;12.64;100.00;101420.78;5029842;28;20444;-43
2023/05/11 00:30:19;;;;;;;31.93;24.17;;;;;;;12.60;100.00;101424.88;5030168;28;20420;-43
2023/05/11 00:32:50;;;;;;;31.67;23.53;;;;;;;12.58;100.00;101427.75;5030431;28;20440;-43
2023/05/11 00:35:18;;;;;;;38.00;24.80;;;;;;;12.56;100.00;101423.63;5025902;28;20522;-40
2023/05/11 00:37:46;;;;;;;34.77;25.37;;;;;;;12.53;100.00;101430.19;5029918;28;20543;-43
2023/05/11 00:40:13;;;;;;;36.40;25.33;;;;;;;12.54;100.00;101418.47;5029214;28;20999;-42
2023/05/11 00:42:41;;;;;;;42.50;26.10;;;;;;;12.47;100.00;101425.59;5029384;28;20428;-45
2023/05/11 00:45:10;;;;;;;42.50;25.10;;;;;;;12.43;100.00;101429.66;5028923;28;20460;-41
2023/05/11 00:47:37;;;;;;;57.73;28.60;;;;;;;12.37;100.00;101421.56;5029268;28;20451;-40
2023/05/11 00:50:08;;;;;;;43.97;27.37;;;;;;;12.37;100.00;101429.59;5029236;28;20882;-41
2023/05/11 00:52:36;;;;;;;46.83;28.17;;;;;;;12.32;100.00;101418.66;5028561;28;20923;-40
2023/05/11 00:55:04;;;;;;;35.03;26.93;;;;;;;12.34;100.00;101429.97;5029062;28;20466;-43
2023/05/11 00:57:34;;;;;;;52.40;30.13;;;;;;;12.31;100.00;101428.53;5029131;28;20456;-40
2023/05/11 01:00:03;;;;;;;59.47;30.90;;;;;;;12.29;100.00;101427.91;5028698;28;20526;-40
2023/05/11 01:02:31;;;;;;;40.90;26.03;;;;;;;12.30;100.00;101434.91;5028776;28;20515;-41
2023/05/11 01:05:00;;;;;;;52.40;28.10;;;;;;;12.23;100.00;101442.03;5028978;28;20995;-40
2023/05/11 01:07:34;;;;;;;69.47;30.80;;;;;;;12.24;100.00;101446.38;5028948;28;20523;-40
2023/05/11 01:10:09;;;;;;;48.87;28.00;;;;;;;12.25;100.00;101442.66;5030260;28;20486;-42
2023/05/11 01:12:48;;;;;;;27.27;23.13;;;;;;;12.24;100.00;101453.56;5028606;28;20428;-40
2023/05/11 01:15:24;;;;;;;28.67;25.57;;;;;;;12.25;100.00;101447.16;5028216;28;20455;-41
2023/05/11 01:17:58;;;;;;;50.53;29.17;;;;;;;12.24;100.00;101451.72;5028826;28;20842;-40
2023/05/11 01:20:29;;;;;;;42.03;27.97;;;;;;;12.24;100.00;101459.75;5027506;28;20468;-40
2023/05/11 01:23:17;;;;;;;43.23;26.13;;;;;;;12.23;100.00;101457.25;5027870;28;20424;-41
2023/05/11 01:25:56;;;;;;;47.57;25.07;;;;;;;12.23;100.00;101459.91;5028896;28;20518;-42
2023/05/11 01:28:38;;;;;;;42.57;26.80;;;;;;;12.19;100.00;101464.81;5028867;28;20454;-39
2023/05/11 01:31:09;;;;;;;26.30;20.67;;;;;;;12.13;100.00;101462.88;5028544;28;20428;-41
2023/05/11 01:33:40;;;;;;;30.50;23.20;;;;;;;11.94;100.00;101466.19;5024711;28;20522;-40
2023/05/11 01:36:11;;;;;;;26.83;21.70;;;;;;;11.85;100.00;101467.31;5028101;28;21122;-40
2023/05/11 01:38:41;;;;;;;25.80;20.50;;;;;;;11.71;100.00;101471.63;5028840;28;20460;-40
2023/05/11 01:41:14;;;;;;;37.10;23.30;;;;;;;11.59;100.00;101465.91;5028470;28;20464;-40
2023/05/11 01:43:45;;;;;;;28.70;20.80;;;;;;;11.55;100.00;101475.31;5027362;28;20830;-41
2023/05/11 01:46:17;;;;;;;41.70;25.13;;;;;;;11.49;100.00;101473.41;5028672;28;20424;-39
2023/05/11 01:48:51;;;;;;;25.43;20.80;;;;;;;11.40;100.00;101471.84;5028437;28;20464;-42
2023/05/11 01:51:19;;;;;;;22.63;19.50;;;;;;;11.31;100.00;101478.28;5028271;28;20439;-40
2023/05/11 01:53:48;;;;;;;27.20;20.80;;;;;;;11.33;100.00;101481.56;5028066;28;20467;-43
2023/05/11 01:56:18;;;;;;;22.77;20.40;;;;;;;11.34;100.00;101483.25;5028156;28;20431;-40
2023/05/11 01:58:46;;;;;;;24.87;19.87;;;;;;;11.30;100.00;101483.78;5028046;28;20448;-40
2023/05/11 02:01:17;;;;;;;26.17;19.77;;;;;;;11.32;100.00;101482.56;5027649;28;20471;-40
2023/05/11 02:03:48;;;;;;;22.63;19.03;;;;;;;11.31;100.00;101488.94;5069816;22;20988;-41
2023/05/11 02:06:19;;;;;;;24.30;21.20;;;;;;;11.36;100.00;101491.88;5072517;28;20466;-40
2023/05/11 02:08:50;;;;;;;26.57;19.67;;;;;;;11.43;100.00;101494.66;5073184;28;20510;-43
2023/05/11 02:11:19;;;;;;;23.80;21.03;;;;;;;11.43;100.00;101489.31;5072581;28;20422;-39
2023/05/11 02:13:49;;;;;;;22.87;18.77;;;;;;;11.40;100.00;101493.19;5071531;28;20823;-42
2023/05/11 02:16:19;;;;;;;24.20;19.37;;;;;;;11.29;100.00;101498.16;5074005;28;20783;-40
2023/05/11 02:18:48;;;;;;;26.00;19.50;;;;;;;11.35;100.00;101500.91;5072146;28;20540;-40
2023/05/11 02:21:18;;;;;;;21.10;18.80;;;;;;;11.30;100.00;101503.31;5072106;28;20466;-40
2023/05/11 02:23:48;;;;;;;21.87;19.53;;;;;;;11.33;100.00;101502.09;5071093;28;21076;-39
2023/05/11 02:26:17;;;;;;;23.07;19.90;;;;;;;11.40;100.00;101505.72;5072721;28;21014;-40
2023/05/11 02:28:45;;;;;;;21.97;19.10;;;;;;;11.48;100.00;101503.78;5072150;28;20434;-44
2023/05/11 02:31:20;;;;;;;22.47;20.10;;;;;;;11.48;100.00;101506.44;5071649;28;20438;-39
2023/05/11 02:33:50;;;;;;;25.10;19.63;;;;;;;11.56;100.00;101509.03;5074781;28;20480;-40
2023/05/11 02:36:21;;;;;;;24.67;20.23;;;;;;;11.55;100.00;101509.22;5075692;28;20979;-42
2023/05/11 02:38:52;;;;;;;24.03;19.00;;;;;;;11.51;100.00;101507.91;5076756;28;20426;-42
2023/05/11 02:41:27;;;;;;;26.00;20.40;;;;;;;11.56;100.00;101511.69;5075808;28;20472;-40
2023/05/11 02:43:58;;;;;;;22.17;19.80;;;;;;;11.53;100.00;101504.03;5074942;28;20468;-43
2023/05/11 02:46:32;;;;;;;22.93;19.90;;;;;;;11.57;100.00;101507.19;5075426;28;20521;-39
2023/05/11 02:49:04;;;;;;;24.23;21.50;;;;;;;11.60;100.00;101514.84;5077619;28;20464;-40
2023/05/11 02:51:35;;;;;;;22.73;19.40;;;;;;;11.58;100.00;101520.38;5076743;28;20485;-44
2023/05/11 02:54:06;;;;;;;27.03;19.37;;;;;;;11.62;100.00;101516.28;5076647;28;20556;-43
2023/05/11 02:56:35;;;;;;;27.40;20.90;;;;;;;11.61;100.00;101520.00;5077469;28;20440;-42
2023/05/11 02:59:03;;;;;;;32.73;24.27;;;;;;;11.65;100.00;101526.63;5075694;28;21006;-41
2023/05/11 03:01:33;;;;;;;27.13;22.33;;;;;;;11.65;100.00;101521.28;5076527;28;20632;-44
2023/05/11 03:04:04;;;;;;;30.47;21.57;;;;;;;11.64;100.00;101519.63;5072516;28;20466;-47
2023/05/11 03:06:32;;;;;;;26.90;21.40;;;;;;;11.64;100.00;101529.50;5075733;28;20426;-43
2023/05/11 03:09:01;;;;;;;23.67;19.97;;;;;;;11.65;100.00;101526.63;5076045;28;21056;-41
2023/05/11 03:11:29;;;;;;;26.50;21.50;;;;;;;11.68;100.00;101525.41;5075821;28;20422;-42
2023/05/11 03:13:57;;;;;;;22.37;19.60;;;;;;;11.66;100.00;101528.28;5075872;28;20474;-41
2023/05/11 03:16:26;;;;;;;22.10;18.50;;;;;;;11.71;100.00;101526.94;5076254;28;20431;-41
2023/05/11 03:18:56;;;;;;;29.80;20.47;;;;;;;11.74;100.00;101531.91;5075025;28;20443;-41
2023/05/11 03:21:26;;;;;;;32.47;22.57;;;;;;;11.72;100.00;101534.75;5074466;28;20492;-43
2023/05/11 03:23:55;;;;;;;27.50;21.20;;;;;;;11.76;100.00;101521.88;5074538;28;21002;-42
2023/05/11 03:26:23;;;;;;;23.73;21.17;;;;;;;11.75;100.00;101522.88;5074253;28;20800;-42
2023/05/11 03:28:53;;;;;;;22.10;19.87;;;;;;;11.80;100.00;101523.16;5074651;28;20490;-42
2023/05/11 03:31:20;;;;;;;28.37;21.47;;;;;;;11.82;100.00;101532.66;5074399;28;20430;-49
2023/05/11 03:33:48;;;;;;;27.87;21.60;;;;;;;11.80;100.00;101520.50;5073319;28;20462;-42
2023/05/11 03:36:18;;;;;;;22.13;19.80;;;;;;;11.68;100.00;101527.28;5074958;28;20951;-41
2023/05/11 03:38:47;;;;;;;44.20;24.97;;;;;;;11.73;100.00;101519.56;5074585;28;20935;-43
2023/05/11 03:41:17;;;;;;;25.67;19.83;;;;;;;11.60;100.00;101522.84;5073716;28;20470;-46
2023/05/11 03:43:47;;;;;;;21.17;19.17;;;;;;;11.57;100.00;101517.88;5072949;28;20485;-43
2023/05/11 03:46:20;;;;;;;21.13;18.83;;;;;;;11.50;100.00;101520.44;5074723;28;20660;-42
2023/05/11 03:48:48;;;;;;;19.63;17.63;;;;;;;11.43;100.00;101518.69;5076502;28;20780;-45
2023/05/11 03:51:18;;;;;;;19.37;17.63;;;;;;;11.33;100.00;101515.47;5074658;28;20434;-43
2023/05/11 03:53:46;;;;;;;20.73;18.77;;;;;;;11.24;100.00;101522.72;5074149;28;20530;-43
2023/05/11 03:56:13;;;;;;;21.30;19.10;;;;;;;11.27;100.00;101524.19;5075588;28;20435;-48
2023/05/11 03:58:42;;;;;;;21.77;19.67;;;;;;;11.23;100.00;101526.41;5075884;28;20437;-42
2023/05/11 04:01:12;;;;;;;22.40;20.00;;;;;;;11.27;100.00;101526.88;5073920;28;20543;-43
2023/05/11 04:03:50;;;;;;;20.87;18.67;;;;;;;11.26;100.00;101526.03;5074097;28;20474;-41
2023/05/11 04:06:19;;;;;;;21.17;18.67;;;;;;;11.26;100.00;101527.91;5075100;28;20442;-41
2023/05/11 04:08:47;;;;;;;22.00;19.67;;;;;;;11.30;100.00;101530.00;5076276;28;20437;-45
2023/05/11 04:11:15;;;;;;;24.53;21.97;;;;;;;11.34;100.00;101533.97;5075235;28;20923;-42
2023/05/11 04:13:43;;;;;;;21.90;19.70;;;;;;;11.31;100.00;101534.34;5073026;28;20473;-41
2023/05/11 04:16:11;;;;;;;22.30;20.00;;;;;;;11.33;100.00;101529.63;5075308;28;20458;-42
2023/05/11 04:18:39;;;;;;;20.77;18.60;;;;;;;11.41;100.00;101534.88;5075468;28;20479;-42
2023/05/11 04:21:06;;;;;;;20.77;18.53;;;;;;;11.43;100.00;101524.03;5074304;28;21074;-43
2023/05/11 04:23:35;;;;;;;23.67;20.97;;;;;;;11.42;100.00;101530.38;5074441;28;20870;-42
2023/05/11 04:26:03;;;;;;;22.73;20.23;;;;;;;11.48;100.00;101532.31;5072791;28;20466;-42
2023/05/11 04:28:31;;;;;;;21.77;19.33;;;;;;;11.50;100.00;101532.97;5074940;28;20427;-41
2023/05/11 04:30:59;;;;;;;19.40;17.33;;;;;;;11.55;100.00;101531.44;5074238;28;20427;-40
2023/05/11 04:33:26;;;;;;;25.07;21.47;;;;;;;11.56;100.00;101538.41;5071863;28;20470;-41
2023/05/11 04:35:54;;;;;;;21.00;18.80;;;;;;;11.59;100.00;101529.19;5074839;28;20430;-42
2023/05/11 04:38:22;;;;;;;21.03;18.80;;;;;;;11.59;100.00;101537.19;5075322;28;20434;-42
2023/05/11 04:40:51;;;;;;;22.43;20.13;;;;;;;11.59;100.00;101537.19;5076092;28;20437;-42
2023/05/11 04:43:21;;;;;;;21.37;19.27;;;;;;;11.58;100.00;101536.41;5072965;28;20469;-46
2023/05/11 04:45:49;;;;;;;21.03;18.80;;;;;;;11.63;100.00;101527.81;5075834;28;20431;-46
2023/05/11 04:48:17;;;;;;;25.10;20.27;;;;;;;11.62;100.00;101537.66;5072503;28;20442;-40
2023/05/11 04:50:47;;;;;;;20.80;18.73;;;;;;;11.62;100.00;101534.16;5075024;28;20438;-42
2023/05/11 04:53:15;;;;;;;22.70;20.30;;;;;;;11.60;100.00;101544.22;5072669;28;20450;-46
2023/05/11 04:55:43;;;;;;;20.67;18.40;;;;;;;11.67;100.00;101539.81;5073552;28;20422;-42
2023/05/11 04:58:12;;;;;;;36.17;24.17;;;;;;;11.61;100.00;101544.03;5074999;28;20537;-41
2023/05/11 05:00:40;;;;;;;31.23;24.80;;;;;;;11.65;100.00;101541.81;5074560;28;20455;-44
2023/05/11 05:03:08;;;;;;;24.10;21.33;;;;;;;11.64;100.00;101546.34;5073616;28;20470;-44
2023/05/11 05:05:35;;;;;;;29.67;22.10;;;;;;;11.58;100.00;101541.75;5073300;28;20441;-45
2023/05/11 05:08:03;;;;;;;23.97;21.37;;;;;;;11.49;100.00;101553.53;5072937;28;20430;-42
2023/05/11 05:10:31;;;;;;;25.13;20.70;;;;;;;11.55;100.00;101550.13;5074197;28;20863;-41
2023/05/11 05:12:58;;;;;;;22.83;20.43;;;;;;;11.56;100.00;101554.44;5072506;28;20434;-44
2023/05/11 05:15:28;;;;;;;23.37;20.87;;;;;;;11.47;100.00;101557.38;5073623;28;20465;-44
2023/05/11 05:17:55;;;;;;;24.57;20.43;;;;;;;11.54;100.00;101561.81;5073467;28;20431;-44
2023/05/11 05:20:23;;;;;;;23.93;21.23;;;;;;;11.53;100.00;101565.47;5072876;28;20522;-46
2023/05/11 05:22:51;;;;;;;38.13;24.67;;;;;;;11.53;100.00;101567.31;5073708;28;20500;-41
2023/05/11 05:25:20;;;;;;;37.93;22.90;;;;;;;11.46;100.00;101561.06;5073618;28;20545;-41
2023/05/11 05:27:48;;;;;;;53.13;23.10;;;;;;;11.49;100.00;101561.53;5072504;28;20468;-42
2023/05/11 05:30:15;;;;;;;33.03;21.63;;;;;;;11.48;100.00;101561.69;5072195;28;20438;-42
2023/05/11 05:32:45;;;;;;;53.70;22.67;;;;;;;11.52;100.00;101561.16;5073380;28;20426;-44
2023/05/11 05:35:12;;;;;;;43.80;21.73;;;;;;;11.55;100.00;101568.00;5071761;28;20462;-42
2023/05/11 05:37:40;;;;;;;119.37;32.97;;;;;;;11.58;100.00;101571.13;5072211;28;20449;-45
2023/05/11 05:40:09;;;;;;;71.33;26.87;;;;;;;11.56;100.00;101573.13;5074242;28;20495;-47
2023/05/11 05:42:36;;;;;;;46.07;26.10;;;;;;;11.55;100.00;101573.34;5073280;28;20502;-46
2023/05/11 05:45:05;;;;;;;30.37;22.70;;;;;;;11.59;100.00;101577.28;5072240;28;20462;-44
2023/05/11 05:47:32;;;;;;;33.50;23.30;;;;;;;11.55;100.00;101582.19;5072609;28;20479;-44
2023/05/11 05:50:01;;;;;;;31.03;22.30;;;;;;;11.52;100.00;101585.22;5071562;28;20435;-43
2023/05/11 05:52:29;;;;;;;38.93;26.27;;;;;;;11.58;100.00;101580.97;5072781;28;20434;-44
2023/05/11 05:54:57;;;;;;;31.07;21.03;;;;;;;11.62;100.00;101596.44;5072517;28;20854;-42
2023/05/11 05:57:24;;;;;;;31.93;23.80;;;;;;;11.65;100.00;101587.22;5073748;28;20431;-40
2023/05/11 05:59:52;;;;;;;30.83;22.70;;;;;;;11.65;100.00;101592.56;5073363;28;20949;-42
2023/05/11 06:02:20;;;;;;;32.63;24.70;;;;;;;11.73;100.00;101592.53;5072295;28;20466;-41
2023/05/11 06:04:48;;;;;;;46.53;26.60;;;;;;;11.70;100.00;101595.59;5071917;28;20558;-42
2023/05/11 06:07:17;;;;;;;47.43;25.77;;;;;;;11.82;100.00;101601.28;5072126;28;20430;-43
2023/05/11 06:09:44;;;;;;;28.60;23.50;;;;;;;11.92;100.00;101593.81;5072854;28;20427;-42
2023/05/11 06:12:12;;;;;;;32.57;24.13;;;;;;;11.98;100.00;101595.75;5070470;28;20426;-41
2023/05/11 06:14:40;;;;;;;26.23;23.30;;;;;;;12.07;100.00;101597.31;5070045;28;20466;-41
2023/05/11 06:17:08;;;;;;;25.63;23.13;;;;;;;12.16;100.00;101590.84;5072257;28;20484;-42
2023/05/11 06:19:35;;;;;;;32.83;24.20;;;;;;;12.27;100.00;101593.06;5071704;28;20480;-41
2023/05/11 06:22:03;;;;;;;26.83;24.10;;;;;;;12.38;100.00;101594.44;5073148;28;20470;-42
2023/05/11 06:24:34;;;;;;;24.47;22.07;;;;;;;12.43;100.00;101586.66;5070324;28;20474;-42
2023/05/11 06:27:03;;;;;;;23.47;21.17;;;;;;;12.50;100.00;101596.44;5071102;28;20878;-40
2023/05/11 06:29:30;;;;;;;26.10;23.67;;;;;;;12.60;100.00;101596.94;5071136;28;20430;-41
2023/05/11 06:31:58;;;;;;;24.77;22.47;;;;;;;12.70;100.00;101594.81;5071220;28;20426;-42
2023/05/11 06:34:26;;;;;;;25.00;22.77;;;;;;;12.87;100.00;101592.72;5073730;28;20466;-42
2023/05/11 06:36:53;;;;;;;22.27;20.17;;;;;;;12.98;100.00;101596.72;5071858;28;20430;-43
2023/05/11 06:39:21;;;;;;;22.13;20.20;;;;;;;13.05;100.00;101592.28;5070468;28;20435;-41
2023/05/11 06:41:52;;;;;;;22.83;20.83;;;;;;;13.10;100.00;101595.22;5070996;28;20608;-42
2023/05/11 06:44:23;;;;;;;24.17;21.97;;;;;;;13.00;100.00;101586.66;5072259;28;20465;-43
2023/05/11 06:46:50;;;;;;;21.97;20.07;;;;;;;13.04;100.00;101588.75;5070849;28;20440;-42
2023/05/11 06:49:18;;;;;;;23.77;21.77;;;;;;;13.11;100.00;101588.88;5072564;28;21016;-40
2023/05/11 06:51:46;;;;;;;22.10;20.30;;;;;;;13.15;100.00;101590.94;5070042;28;20434;-43
2023/05/11 06:54:13;;;;;;;22.77;20.80;;;;;;;13.22;100.00;101591.00;5070498;28;20466;-42
2023/05/11 06:56:41;;;;;;;22.27;20.57;;;;;;;13.32;100.00;101586.97;5070970;28;21146;-42
2023/05/11 06:59:10;;;;;;;23.03;21.03;;;;;;;13.37;100.00;101590.94;5071455;28;20838;-41
2023/05/11 07:01:38;;;;;;;20.47;18.97;;;;;;;13.47;100.00;101583.38;5073091;28;20426;-42
2023/05/11 07:04:06;;;;;;;21.50;20.00;;;;;;;13.63;100.00;101591.94;5068434;28;20470;-42
2023/05/11 07:06:34;;;;;;;20.50;19.00;;;;;;;13.59;100.00;101596.03;5071640;28;20473;-41
2023/05/11 07:09:02;;;;;;;19.97;18.47;;;;;;;13.70;100.00;101586.63;5072474;28;20433;-41
2023/05/11 07:11:31;;;;;;;19.60;18.00;;;;;;;13.60;100.00;101586.97;5070100;28;20477;-42
2023/05/11 07:13:58;;;;;;;20.20;18.80;;;;;;;13.64;100.00;101596.28;5071036;28;20469;-46
2023/05/11 07:16:27;;;;;;;19.93;18.33;;;;;;;13.79;100.00;101602.38;5071984;28;20835;-44
2023/05/11 07:18:55;;;;;;;18.63;17.30;;;;;;;13.73;100.00;101597.78;5071522;28;20434;-43
2023/05/11 07:21:22;;;;;;;19.67;18.27;;;;;;;13.76;100.00;101597.41;5075387;28;20733;-43
2023/05/11 07:23:50;;;;;;;18.73;17.33;;;;;;;13.69;100.00;101601.88;5074488;28;20476;-44
2023/05/11 07:26:18;;;;;;;18.97;17.57;;;;;;;13.82;100.00;101612.72;5074795;28;20694;-41
2023/05/11 07:28:45;;;;;;;17.47;16.27;;;;;;;13.94;100.00;101604.09;5075320;28;21124;-45
2023/05/11 07:31:13;;;;;;;17.17;15.87;;;;;;;14.09;100.00;101604.81;5075478;28;20850;-44
2023/05/11 07:33:42;;;;;;;17.87;16.67;;;;;;;14.15;100.00;101604.00;5072477;28;20987;-41
2023/05/11 07:36:10;;;;;;;18.50;16.93;;;;;;;14.24;100.00;101594.78;5077929;28;20419;-41
2023/05/11 07:38:38;;;;;;;20.00;18.60;;;;;;;14.38;100.00;101597.34;5076617;28;20476;-45
2023/05/11 07:41:07;;;;;;;19.90;18.40;;;;;;;14.49;100.00;101600.44;5075924;28;20434;-41
2023/05/11 07:43:38;;;;;;;18.20;16.90;;;;;;;14.48;100.00;101605.03;5073336;28;20466;-42
2023/05/11 07:46:06;;;;;;;18.87;17.47;;;;;;;14.43;100.00;101604.78;5073749;28;20435;-41
2023/05/11 07:48:33;;;;;;;19.07;17.67;;;;;;;14.18;100.00;101606.28;5073753;28;20787;-42
2023/05/11 07:51:02;;;;;;;18.73;17.33;;;;;;;14.02;100.00;101609.28;5074657;28;20430;-41
2023/05/11 07:53:30;;;;;;;17.77;16.53;;;;;;;14.22;100.00;101607.53;5073490;28;20462;-42
2023/05/11 07:55:59;;;;;;;19.37;17.87;;;;;;;14.37;100.00;101613.63;5073526;28;20803;-43
2023/05/11 07:58:27;;;;;;;19.93;18.53;;;;;;;14.51;100.00;101607.31;5073351;28;20634;-41
2023/05/11 08:00:55;;;;;;;19.50;18.07;;;;;;;14.54;100.00;101606.91;5073819;28;20435;-40
2023/05/11 08:03:22;;;;;;;21.20;19.50;;;;;;;14.57;100.00;101611.03;5071538;28;20513;-42
2023/05/11 08:05:50;;;;;;;18.17;16.90;;;;;;;14.59;100.00;101614.34;5096692;22;21036;-46
2023/05/11 08:08:19;;;;;;;19.73;18.33;;;;;;;14.65;100.00;101617.03;5093319;28;20448;-43
2023/05/11 08:10:47;;;;;;;19.87;18.33;;;;;;;14.75;100.00;101620.19;5091301;28;20433;-41
2023/05/11 08:13:14;;;;;;;20.50;18.80;;;;;;;14.82;100.00;101622.84;5090521;28;20516;-41
2023/05/11 08:15:43;;;;;;;20.63;19.00;;;;;;;14.73;100.00;101627.59;5090576;28;20479;-46
2023/05/11 08:18:11;;;;;;;21.00;19.30;;;;;;;14.71;100.00;101629.66;5092077;28;20426;-39
2023/05/11 08:20:40;;;;;;;20.63;19.03;;;;;;;14.70;100.00;101630.69;5092103;28;20435;-44
2023/05/11 08:23:09;;;;;;;23.60;21.33;;;;;;;14.59;100.00;101636.63;5091064;28;20518;-39
2023/05/11 08:25:38;;;;;;;22.40;20.50;;;;;;;14.65;100.00;101635.84;5091607;28;20557;-41
2023/05/11 08:28:06;;;;;;;22.00;20.20;;;;;;;14.72;100.00;101634.00;5089802;28;20925;-43
2023/05/11 08:30:33;;;;;;;22.30;20.33;;;;;;;14.76;100.00;101631.72;5091803;28;20559;-44
2023/05/11 08:33:02;;;;;;;22.40;20.40;;;;;;;14.81;100.00;101632.78;5092435;28;20429;-40
2023/05/11 08:35:44;;;;;;;23.50;21.50;;;;;;;14.82;100.00;101634.44;5078800;28;20500;-43
2023/05/11 08:38:12;;;;;;;21.67;19.57;;;;;;;14.82;100.00;101637.13;5091294;28;20438;-41
2023/05/11 08:40:46;;;;;;;23.33;21.07;;;;;;;14.74;100.00;101639.16;5090365;28;20926;-41
2023/05/11 08:43:15;;;;;;;24.83;22.60;;;;;;;14.51;100.00;101652.94;5090855;28;20476;-41
2023/05/11 08:45:46;;;;;;;24.40;22.33;;;;;;;14.66;100.00;101648.25;5090740;28;20461;-42
2023/05/11 08:48:16;;;;;;;23.97;21.83;;;;;;;14.49;100.00;101656.81;5091112;28;20911;-40
2023/05/11 08:50:45;;;;;;;24.90;22.30;;;;;;;14.62;100.00;101652.34;5092349;28;20436;-40
2023/05/11 08:53:13;;;;;;;25.27;23.07;;;;;;;14.79;100.00;101655.47;5091773;28;20429;-41
2023/05/11 08:55:42;;;;;;;23.30;21.20;;;;;;;14.87;100.00;101644.59;5091057;28;20848;-41
2023/05/11 08:58:11;;;;;;;24.73;22.63;;;;;;;14.99;100.00;101655.56;5091629;28;20432;-41
2023/05/11 09:00:39;;;;;;;24.40;22.30;;;;;;;14.81;100.00;101645.38;5090903;28;20475;-42
2023/05/11 09:03:08;;;;;;;24.80;22.60;;;;;;;14.87;100.00;101650.75;5091515;28;20425;-44
2023/05/11 09:05:37;;;;;;;24.43;22.33;;;;;;;14.68;100.00;101650.72;5090089;28;21032;-41
2023/05/11 09:08:07;;;;;;;25.00;22.60;;;;;;;14.85;100.00;101658.19;5090897;28;20440;-41
2023/05/11 09:10:36;;;;;;;22.33;20.53;;;;;;;14.90;100.00;101653.03;5091609;28;20982;-42
2023/05/11 09:13:06;;;;;;;23.63;21.60;;;;;;;14.82;100.00;101655.09;5091766;28;20437;-41
2023/05/11 09:15:33;;;;;;;23.10;21.07;;;;;;;14.79;100.00;101650.13;5090685;28;20473;-43
2023/05/11 09:18:05;;;;;;;23.60;21.70;;;;;;;15.09;100.00;101662.19;5089668;28;20529;-43
2023/05/11 09:20:34;;;;;;;22.17;20.27;;;;;;;15.32;100.00;101656.44;5090605;28;20429;-44
2023/05/11 09:23:02;;;;;;;23.30;21.23;;;;;;;15.16;100.00;101657.66;5090761;28;20433;-42
2023/05/11 09:25:33;;;;;;;21.80;20.07;;;;;;;15.00;100.00;101657.19;5089163;28;20468;-39
2023/05/11 09:28:02;;;;;;;22.27;20.47;;;;;;;15.08;100.00;101659.72;5091167;28;20426;-43
2023/05/11 09:30:33;;;;;;;21.23;19.57;;;;;;;15.10;100.00;101661.16;5091113;28;20437;-40
2023/05/11 09:33:02;;;;;;;21.87;20.10;;;;;;;15.11;100.00;101662.00;5089247;28;20426;-39
2023/05/11 09:35:32;;;;;;;21.43;19.77;;;;;;;14.94;100.00;101658.84;5084168;28;20500;-40
2023/05/11 09:38:03;;;;;;;19.17;17.60;;;;;;;14.88;100.00;101662.34;5090966;28;20425;-40
2023/05/11 09:40:33;;;;;;;21.37;19.57;;;;;;;14.83;100.00;101664.81;5091135;28;20433;-40
2023/05/11 09:43:02;;;;;;;21.97;20.07;;;;;;;14.94;100.00;101662.34;5089159;28;21050;-41
2023/05/11 09:45:38;;;;;;;19.47;17.97;;;;;;;15.16;100.00;101671.09;5090342;28;20860;-41
2023/05/11 09:48:07;;;;;;;19.73;18.30;;;;;;;15.21;100.00;101663.22;5089553;28;20431;-43
2023/05/11 09:50:36;;;;;;;19.27;17.77;;;;;;;15.20;100.00;101666.94;5089135;28;20479;-44
2023/05/11 09:53:03;;;;;;;18.60;17.10;;;;;;;15.32;100.00;101659.94;5090223;28;20502;-46
2023/05/11 09:55:31;;;;;;;19.53;18.03;;;;;;;15.41;100.00;101665.97;5088204;28;20570;-46
2023/05/11 09:58:00;;;;;;;20.67;19.07;;;;;;;15.50;100.00;101668.25;5089452;28;20557;-43
2023/05/11 10:00:28;;;;;;;20.27;18.47;;;;;;;15.38;100.00;101664.50;5089430;28;20452;-43
2023/05/11 10:03:02;;;;;;;21.07;19.17;;;;;;;15.48;100.00;101673.00;5089685;28;20465;-42
2023/05/11 10:05:32;;;;;;;22.20;20.33;;;;;;;15.46;100.00;101669.69;5089770;28;20468;-41
2023/05/11 10:08:02;;;;;;;22.53;20.43;;;;;;;15.54;100.00;101663.28;5091463;28;20430;-44
2023/05/11 10:10:31;;;;;;;21.47;19.57;;;;;;;15.67;100.00;101667.84;5089635;28;20455;-42
2023/05/11 10:13:00;;;;;;;22.97;20.80;;;;;;;15.79;100.00;101658.13;5087927;28;20430;-43
2023/05/11 10:15:30;;;;;;;19.50;17.70;;;;;;;15.79;100.00;101666.19;5089767;28;20495;-44
2023/05/11 10:18:01;;;;;;;23.00;20.80;;;;;;;15.96;100.00;101654.78;5088118;28;21038;-40
2023/05/11 10:20:28;;;;;;;20.60;18.70;;;;;;;16.10;100.00;101662.84;5089104;28;20432;-44
2023/05/11 10:22:56;;;;;;;19.63;17.73;;;;;;;16.30;100.00;101658.22;5089531;28;20452;-40
2023/05/11 10:25:26;;;;;;;20.37;18.43;;;;;;;16.27;100.00;101656.78;5089707;28;20489;-43
2023/05/11 10:27:55;;;;;;;20.80;18.63;;;;;;;16.20;100.00;101657.81;5089171;28;20930;-41
2023/05/11 10:30:23;;;;;;;18.30;16.70;;;;;;;16.11;100.00;101659.09;5089997;28;20430;-41
2023/05/11 10:32:52;;;;;;;21.50;19.40;;;;;;;16.01;100.00;101659.53;5088901;28;20433;-41
2023/05/11 10:35:21;;;;;;;20.40;18.50;;;;;;;16.09;100.00;101653.09;5088182;28;20473;-41
2023/05/11 10:37:50;;;;;;;19.90;18.20;;;;;;;15.90;100.00;101654.78;5089703;28;20425;-43
2023/05/11 10:40:18;;;;;;;18.90;17.20;;;;;;;15.88;100.00;101663.09;5089586;28;20425;-41
2023/05/11 10:43:17;;;;;;;20.27;18.17;;;;;;;15.94;100.00;101653.34;5090041;28;20436;-42
2023/05/11 10:45:52;;;;;;;21.83;19.70;;;;;;;15.95;100.00;101660.34;5089674;28;20552;-40
2023/05/11 10:48:48;;;;;;;22.37;20.33;;;;;;;15.95;100.00;101661.19;5090876;28;20439;-40
2023/05/11 10:51:44;;;;;;;22.87;20.67;;;;;;;15.95;100.00;101663.03;5089960;28;20774;-39
2023/05/11 10:54:37;;;;;;;22.73;20.33;;;;;;;15.89;100.00;101662.03;5082263;28;20453;-39
2023/05/11 10:57:13;;;;;;;21.70;19.53;;;;;;;15.72;100.00;101655.44;5094258;28;20433;-39
2023/05/11 11:00:16;;;;;;;21.83;19.60;;;;;;;15.62;100.00;101665.75;5094121;28;20535;-46
2023/05/11 11:02:44;;;;;;;21.87;19.57;;;;;;;15.57;100.00;101660.19;5076910;28;20437;-41
2023/05/11 11:05:16;;;;;;;23.37;20.40;;;;;;;15.52;100.00;101662.69;5093843;28;20527;-41
2023/05/11 11:07:59;;;;;;;20.97;18.77;;;;;;;15.45;100.00;101667.19;5093201;28;20429;-43
2023/05/11 11:10:31;;;;;;;21.20;19.10;;;;;;;15.34;100.00;101665.13;5094416;28;20482;-41
2023/05/11 11:13:04;;;;;;;21.20;19.20;;;;;;;15.40;100.00;101662.44;5093926;28;20429;-44